Spangler, PA (15775)

07:57 AM EDT del 01 Luglio 2015 (GMT -0400)
Nicktown | | Change Station
CLOSE
Current Station
Stazione meteo personale
Location: Nicktown, PA
Altitudine: 1837 ft
Stazioni meteo nelle vicinanze

Alt. 1837 ft 40.62 °N, 78.83 °W | Updated 13 minutes ago

Nebbia
Nebbia
59.0 °F
Sembra 59.0 °F
N
6.8
Vento Variabile Vento da OSO

Oggi
Massima -- | Minima -- °F
--% Possibilità di precip.
Ieri
Massima -- | Minima -- °F
Precip. -- in
5:47 AM 8:50 PM
Luna piena, 100% visible
Pressione 29.90 in
Visibilità 0.2 miglia
Nuvole Coperto 300 ft
Punto di rugiada 58 °F
Umidità 96%
Piovosità 0.00 in
Spessore del manto nevoso Non disponibile.
Raggi UV 0 fuori da 12
Polline 3.90 fuori da 12
Qualità dell'aria Non disponibile.
Flu Activity Non disponibile.
METAR KIDI 011135Z AUTO 23009KT 1/4SM FG OVC003 16/16 A2990 RMK A01

More Conditions Fewer Conditions

Pressione 29.90 in
Visibilità 0.2 miglia
Nuvole Coperto 300 ft
Punto di rugiada 58 °F
Umidità 96%
Piovosità 0.00 in
Spessore del manto nevoso Non disponibile.
Raggi UV 0 fuori da 12
Polline 3.90 fuori da 12
Qualità dell'aria Non disponibile.
Flu Activity Non disponibile.
METAR KIDI 011135Z AUTO 23009KT 1/4SM FG OVC003 16/16 A2990 RMK A01

More Conditions Fewer Conditions

10-Day Weather Forecast

×

Almanac

Astronomia

Jul. 01, 2015 Alba Tramonto
Ora attuale
Crepuscolo civile
Crepuscolo nautico
Crepuscolo astronomico
Luna
Estensione della luce visibile
Lunghezza del giorno
Tomorrow will be .
, % of the Moon is Illuminated

Gli estremi di oggi

State Highs State Lows

Community

WunderPhotos

Upload Photos

1,834,180 foto caricate!

WunderBlogs® & News

Nearby

Qualità dell'aria

  Qualità dell'aria Indice AQ Inquinante
Not available.

Profondità neve

Stazione Profondità Altitudine

Attività sismica

Città  Distanza Mag. Data & Ora
Minimo Magnitudo Mostrato è 2.5.

Temperature delle acque costiere

Località Temperatura

Stations

Stazioni meteo nelle vicinanze

Ubicazione della stazione Temp. Raffreddamento del vento Punto di rugiada Umidità Vento Precip. Alt. Aggiornato Tipo